Time;durP1;ratioP1;P1;durP2;ratioP2;P2;SDS_P1;SDS_P2;PMS_P1;PMS_P2;Temp;Humidity;BMP_temperature;BMP_pressure;BME280_temperature;BME280_humidity;BME280_pressure;Samples;Min_cycle;Max_cycle;Signal;HPM_P1;HPM_P2
2022/05/25 00:00:36;;;;;;;10.95;6.10;;;;;;;11.48;86.35;101112.22;5075141;28;20021;-42
2022/05/25 00:03:01;;;;;;;8.85;5.93;;;;;;;11.44;86.29;101120.53;5057343;28;20032;-43
2022/05/25 00:05:27;;;;;;;7.93;5.85;;;;;;;11.33;86.65;101116.63;5074758;28;20021;-44
2022/05/25 00:07:53;;;;;;;9.88;5.75;;;;;;;11.36;86.69;101121.44;5075014;28;20407;-43
2022/05/25 00:10:18;;;;;;;8.52;5.72;;;;;;;11.47;87.35;101120.16;5075232;28;20020;-43
2022/05/25 00:12:44;;;;;;;7.45;5.57;;;;;;;11.53;86.87;101127.19;5056980;28;20040;-44
2022/05/25 00:15:12;;;;;;;8.60;5.38;;;;;;;11.51;86.50;101131.78;5057797;28;20027;-44
2022/05/25 00:17:37;;;;;;;8.93;5.78;;;;;;;11.35;87.24;101125.03;5074487;28;20032;-43
2022/05/25 00:20:04;;;;;;;11.05;5.85;;;;;;;11.28;88.08;101129.34;5075100;28;20035;-43
2022/05/25 00:22:41;;;;;;;10.10;5.70;;;;;;;11.36;87.81;101120.66;5074608;28;20487;-43
2022/05/25 00:25:08;;;;;;;7.65;5.75;;;;;;;11.35;87.20;101137.16;5074716;28;20147;-42
2022/05/25 00:27:34;;;;;;;8.55;5.35;;;;;;;11.19;87.17;101136.41;5074465;28;20035;-44
2022/05/25 00:30:00;;;;;;;7.63;5.78;;;;;;;11.05;87.65;101139.81;5074768;28;20020;-42
2022/05/25 00:32:25;;;;;;;9.77;5.63;;;;;;;11.00;88.35;101140.34;5056687;28;20024;-46
2022/05/25 00:34:51;;;;;;;8.60;5.72;;;;;;;11.02;88.70;101137.59;5074505;28;20464;-43
2022/05/25 00:37:16;;;;;;;7.15;5.10;;;;;;;11.00;88.59;101135.19;5057306;28;20097;-42
2022/05/25 00:39:41;;;;;;;12.77;5.60;;;;;;;11.03;88.68;101139.19;5074329;28;20036;-44
2022/05/25 00:42:07;;;;;;;9.23;6.13;;;;;;;10.91;88.69;101138.06;5074873;28;20028;-44
2022/05/25 00:44:32;;;;;;;8.38;5.60;;;;;;;10.93;89.03;101136.06;5074263;28;20029;-45
2022/05/25 00:46:59;;;;;;;11.13;5.75;;;;;;;10.92;89.22;101144.81;5074569;28;20100;-44
2022/05/25 00:49:30;;;;;;;11.05;6.20;;;;;;;10.84;88.45;101151.69;5057009;28;20020;-43
2022/05/25 00:52:04;;;;;;;11.55;5.70;;;;;;;10.87;88.89;101149.72;5074124;28;20029;-51
2022/05/25 00:54:37;;;;;;;12.82;5.30;;;;;;;10.92;88.60;101153.38;5056296;28;20024;-45
2022/05/25 00:57:08;;;;;;;11.20;5.40;;;;;;;10.86;89.13;101154.09;5074634;28;20040;-45
2022/05/25 00:59:45;;;;;;;7.70;5.10;;;;;;;10.91;89.04;101148.41;5074563;28;20024;-45
2022/05/25 01:02:11;;;;;;;7.57;5.05;;;;;;;10.84;88.63;101156.84;5074269;28;20150;-44
2022/05/25 01:04:36;;;;;;;9.45;5.20;;;;;;;10.72;88.92;101155.69;5055947;28;20078;-42
2022/05/25 01:07:14;;;;;;;8.05;4.93;;;;;;;10.61;90.20;101163.91;5073754;28;20045;-44
2022/05/25 01:10:13;;;;;;;7.10;5.10;;;;;;;10.67;90.33;101163.19;5055864;28;20119;-43
2022/05/25 01:13:18;;;;;;;9.82;5.40;;;;;;;10.70;89.64;101160.25;5073870;28;20416;-44
2022/05/25 01:16:07;;;;;;;12.13;5.13;;;;;;;10.60;89.88;101159.72;5074035;28;20027;-43
2022/05/25 01:18:41;;;;;;;8.50;5.35;;;;;;;10.64;90.42;101162.75;5055691;28;20470;-43
2022/05/25 01:21:19;;;;;;;9.75;4.95;;;;;;;10.67;90.15;101170.13;5056109;28;20027;-46
2022/05/25 01:24:10;;;;;;;9.38;5.10;;;;;;;10.65;90.92;101159.19;5073846;28;20032;-43
2022/05/25 01:27:05;;;;;;;7.57;4.63;;;;;;;10.71;91.00;101158.47;5073746;28;20086;-44
2022/05/25 01:29:53;;;;;;;10.30;4.78;;;;;;;10.75;90.94;101157.13;5074022;28;20029;-44
2022/05/25 01:33:03;;;;;;;6.85;4.68;;;;;;;10.73;90.97;101169.44;5043737;28;20051;-43
2022/05/25 01:35:46;;;;;;;11.57;5.00;;;;;;;10.82;90.52;101163.22;5058096;28;20036;-43
2022/05/25 01:38:36;;;;;;;8.98;4.82;;;;;;;10.80;90.67;101165.97;5055453;28;20059;-43
2022/05/25 01:41:13;;;;;;;10.38;4.95;;;;;;;10.74;90.28;101171.84;5073869;28;20513;-41
2022/05/25 01:43:45;;;;;;;8.70;4.70;;;;;;;10.73;91.04;101172.00;5073574;28;20025;-43
2022/05/25 01:46:18;;;;;;;10.88;5.00;;;;;;;10.74;91.17;101177.03;5073286;28;20025;-43
2022/05/25 01:48:47;;;;;;;7.53;4.55;;;;;;;10.73;91.34;101174.59;5073328;28;20039;-45
2022/05/25 01:51:31;;;;;;;6.40;4.60;;;;;;;10.68;91.20;101169.19;5073499;28;20375;-45
2022/05/25 01:54:00;;;;;;;7.38;4.60;;;;;;;10.71;91.66;101174.00;5073197;28;20528;-44
2022/05/25 01:56:29;;;;;;;10.32;5.22;;;;;;;10.68;91.39;101171.75;5073440;28;20020;-43
2022/05/25 01:58:59;;;;;;;9.27;4.93;;;;;;;10.72;91.79;101175.59;5073123;28;20589;-45
2022/05/25 02:01:24;;;;;;;15.73;5.10;;;;;;;10.78;91.77;101177.47;5073490;28;20028;-44
2022/05/25 02:06:52;;;;;;;9.18;4.78;;;;;;;10.77;92.11;101176.66;5073152;28;20505;-43
2022/05/25 02:09:29;;;;;;;7.45;4.68;;;;;;;10.73;91.80;101178.00;5073315;28;20023;-42
2022/05/25 02:12:18;;;;;;;8.23;4.80;;;;;;;10.66;92.23;101179.69;5073406;28;20101;-43
2022/05/25 02:15:10;;;;;;;12.02;5.05;;;;;;;10.74;91.84;101178.81;5073282;28;20028;-42
2022/05/25 02:17:43;;;;;;;9.18;4.90;;;;;;;10.70;92.13;101177.53;5072971;28;20041;-43
2022/05/25 02:20:18;;;;;;;7.80;4.50;;;;;;;10.59;92.38;101176.22;5073494;28;20066;-45
2022/05/25 02:23:00;;;;;;;9.43;4.55;;;;;;;10.69;92.60;101183.69;5072919;28;20067;-45
2022/05/25 02:25:58;;;;;;;12.10;5.30;;;;;;;10.70;92.50;101186.09;5072870;28;20066;-42
2022/05/25 02:28:34;;;;;;;9.13;4.68;;;;;;;10.75;92.22;101183.78;5073064;28;20052;-45
2022/05/25 02:31:03;;;;;;;15.65;4.93;;;;;;;10.63;92.31;101184.41;5054855;28;20120;-44
2022/05/25 02:33:41;;;;;;;11.13;5.18;;;;;;;10.68;93.15;101187.28;5073076;28;20490;-44
2022/05/25 02:36:08;;;;;;;9.35;4.90;;;;;;;10.57;93.09;101186.72;5054839;28;20024;-45
2022/05/25 02:38:37;;;;;;;8.95;4.78;;;;;;;10.58;93.29;101200.44;5073291;28;20028;-44
2022/05/25 02:41:27;;;;;;;11.52;5.20;;;;;;;10.63;93.50;101200.72;5076142;28;20025;-44
2022/05/25 02:43:52;;;;;;;10.23;5.10;;;;;;;10.74;93.36;101192.53;5076335;28;20044;-43
2022/05/25 02:46:18;;;;;;;9.50;5.00;;;;;;;10.74;93.16;101192.53;5059089;28;20087;-43
2022/05/25 02:48:43;;;;;;;9.25;5.32;;;;;;;10.72;93.32;101188.50;5077132;28;20024;-43
2022/05/25 02:51:09;;;;;;;11.48;5.45;;;;;;;10.74;93.39;101199.47;5058405;28;20463;-43
2022/05/25 02:53:34;;;;;;;13.48;5.70;;;;;;;10.78;93.55;101195.56;5076462;28;20028;-43
2022/05/25 02:56:01;;;;;;;9.52;5.43;;;;;;;10.76;93.22;101198.34;5077029;28;20079;-44
2022/05/25 02:58:27;;;;;;;12.20;5.82;;;;;;;10.76;93.41;101194.91;5058499;28;20028;-44
2022/05/25 03:00:53;;;;;;;11.77;5.90;;;;;;;10.69;93.88;101200.00;5058279;28;20052;-42
2022/05/25 03:03:18;;;;;;;12.95;6.30;;;;;;;10.62;93.76;101196.53;5058388;28;20531;-43
2022/05/25 03:05:44;;;;;;;11.88;6.60;;;;;;;10.57;94.27;101201.44;5076216;28;20025;-48
2022/05/25 03:08:09;;;;;;;9.52;6.45;;;;;;;10.49;94.77;101188.56;5076010;28;20097;-45
2022/05/25 03:10:34;;;;;;;12.82;6.57;;;;;;;10.60;94.27;101206.25;5076053;28;20391;-44
2022/05/25 03:13:00;;;;;;;13.52;7.22;;;;;;;10.58;94.20;101206.41;5076132;28;20027;-43
2022/05/25 03:15:26;;;;;;;15.27;7.03;;;;;;;10.45;93.99;101195.88;5077150;28;20031;-42
2022/05/25 03:17:51;;;;;;;13.77;7.53;;;;;;;10.58;95.00;101211.56;5076014;28;20024;-43
2022/05/25 03:20:17;;;;;;;17.35;7.32;;;;;;;10.56;94.05;101215.34;5076483;28;20104;-44
2022/05/25 03:22:44;;;;;;;17.20;7.65;;;;;;;10.50;94.73;101221.19;5058074;28;20025;-44
2022/05/25 03:25:11;;;;;;;16.10;7.88;;;;;;;10.48;95.24;101220.56;5057957;28;20023;-42
2022/05/25 03:27:37;;;;;;;15.15;7.65;;;;;;;10.58;95.61;101218.53;5075806;28;20050;-43
2022/05/25 03:30:04;;;;;;;13.63;7.90;;;;;;;10.59;95.50;101218.38;5075791;28;20028;-44
2022/05/25 03:32:29;;;;;;;20.63;8.38;;;;;;;10.71;94.77;101223.91;5075734;28;20028;-42
2022/05/25 03:34:54;;;;;;;13.70;7.72;;;;;;;10.61;94.90;101224.13;5075821;28;20090;-45
2022/05/25 03:37:20;;;;;;;20.08;8.35;;;;;;;10.70;94.84;101222.28;5075881;28;20090;-43
2022/05/25 03:39:45;;;;;;;14.18;7.53;;;;;;;10.66;94.47;101230.56;5076183;28;20029;-43
2022/05/25 03:42:15;;;;;;;16.83;8.30;;;;;;;10.66;94.71;101230.56;5075604;28;20021;-43
2022/05/25 03:44:41;;;;;;;17.77;8.20;;;;;;;10.64;94.68;101229.94;5075810;28;20047;-44
2022/05/25 03:47:06;;;;;;;16.48;8.18;;;;;;;10.61;95.08;101231.88;5075494;28;20055;-44
2022/05/25 03:49:31;;;;;;;17.90;8.70;;;;;;;10.65;95.25;101231.56;5075755;28;20024;-45
2022/05/25 03:51:56;;;;;;;17.25;8.00;;;;;;;10.70;95.02;101229.22;5074040;28;20387;-49
2022/05/25 03:54:22;;;;;;;16.45;7.90;;;;;;;10.64;95.08;101235.13;5075602;28;20039;-44
2022/05/25 03:56:47;;;;;;;17.40;8.05;;;;;;;10.71;95.18;101239.41;5075878;28;20468;-43
2022/05/25 03:59:13;;;;;;;17.38;8.43;;;;;;;10.76;95.13;101234.53;5075502;28;20024;-43
2022/05/25 04:01:38;;;;;;;16.08;8.05;;;;;;;10.70;94.78;101232.63;5075478;28;20021;-43
2022/05/25 04:04:04;;;;;;;16.00;7.65;;;;;;;10.78;94.48;101239.50;5075218;28;20387;-45
2022/05/25 04:06:30;;;;;;;15.70;7.93;;;;;;;10.84;95.03;101241.38;5074830;28;20020;-43
2022/05/25 04:08:55;;;;;;;23.00;8.43;;;;;;;10.73;94.71;101239.22;5075317;28;20025;-44
2022/05/25 04:11:20;;;;;;;15.50;7.80;;;;;;;10.79;94.74;101243.72;5075510;28;20028;-44
2022/05/25 04:13:46;;;;;;;15.25;7.88;;;;;;;10.80;95.03;101242.72;5074939;28;20410;-42
2022/05/25 04:16:11;;;;;;;16.15;7.70;;;;;;;10.88;94.64;101247.00;5074938;28;20028;-44
2022/05/25 04:18:36;;;;;;;15.45;7.57;;;;;;;10.87;94.73;101242.81;5075154;28;20210;-45
2022/05/25 04:21:02;;;;;;;17.00;8.10;;;;;;;11.01;94.23;101253.16;5057631;28;20028;-41
2022/05/25 04:23:28;;;;;;;14.45;7.38;;;;;;;10.95;94.24;101251.28;5056915;28;20035;-43
2022/05/25 04:25:54;;;;;;;14.90;8.13;;;;;;;10.91;94.73;101250.03;5075066;28;20028;-45
2022/05/25 04:28:20;;;;;;;16.40;7.88;;;;;;;11.04;95.22;101244.25;5056774;28;20029;-44
2022/05/25 04:30:46;;;;;;;14.90;7.57;;;;;;;11.07;94.05;101246.47;5057356;28;20036;-43
2022/05/25 04:33:12;;;;;;;14.70;7.50;;;;;;;11.14;93.55;101244.00;5075166;28;20049;-45
2022/05/25 04:35:37;;;;;;;15.77;7.97;;;;;;;11.16;93.51;101249.75;5074752;28;20103;-44
2022/05/25 04:38:03;;;;;;;14.60;7.93;;;;;;;11.21;93.46;101252.63;5075003;28;20032;-44
2022/05/25 04:40:40;;;;;;;14.88;7.07;;;;;;;11.18;93.69;101250.41;5056488;28;20054;-44
2022/05/25 04:43:08;;;;;;;13.90;7.40;;;;;;;11.21;93.38;101245.66;5074710;28;20024;-43
2022/05/25 04:45:36;;;;;;;13.93;6.95;;;;;;;11.23;93.34;101251.47;5074732;28;20101;-43
2022/05/25 04:48:02;;;;;;;15.23;7.22;;;;;;;11.21;93.50;101250.84;5074281;28;20479;-44
2022/05/25 04:50:33;;;;;;;11.13;6.95;;;;;;;11.28;93.07;101249.16;5039720;28;20106;-42
2022/05/25 04:52:59;;;;;;;13.73;7.18;;;;;;;11.33;93.58;101246.00;5074472;28;20047;-43
2022/05/25 04:58:25;;;;;;;14.27;7.05;;;;;;;11.53;92.31;101248.84;5074908;28;20094;-42
2022/05/25 05:00:51;;;;;;;14.23;7.45;;;;;;;11.58;92.11;101253.47;5074040;28;20406;-43
2022/05/25 05:03:17;;;;;;;15.43;7.38;;;;;;;11.52;91.94;101239.47;5073705;28;20020;-44
2022/05/25 05:05:43;;;;;;;17.42;7.47;;;;;;;11.57;92.58;101244.91;5074234;28;20032;-45
2022/05/25 05:08:09;;;;;;;17.45;8.02;;;;;;;11.59;92.23;101242.94;5073900;28;20044;-41
2022/05/25 05:10:35;;;;;;;16.55;7.60;;;;;;;11.69;92.24;101246.03;5073757;28;20026;-43
2022/05/25 05:13:07;;;;;;;18.33;7.65;;;;;;;11.86;91.26;101241.47;5074034;28;20032;-44
2022/05/25 05:15:38;;;;;;;16.88;7.93;;;;;;;11.72;91.38;101242.28;5073775;28;20031;-43
2022/05/25 05:18:04;;;;;;;16.95;7.32;;;;;;;11.92;90.63;101235.56;5073812;28;20039;-44
2022/05/25 05:20:30;;;;;;;14.65;7.22;;;;;;;11.91;90.52;101244.31;5073541;28;20405;-44
2022/05/25 05:22:55;;;;;;;16.17;8.27;;;;;;;11.94;90.32;101245.75;5073957;28;20070;-42
2022/05/25 05:25:20;;;;;;;13.65;7.65;;;;;;;12.07;90.79;101245.06;5073565;28;20426;-41
2022/05/25 05:27:46;;;;;;;15.65;7.60;;;;;;;11.92;91.33;101253.69;5073867;28;20028;-43
2022/05/25 05:30:15;;;;;;;13.68;8.00;;;;;;;12.11;90.08;101254.88;5074057;28;20449;-44
2022/05/25 05:32:40;;;;;;;14.70;7.82;;;;;;;12.23;89.20;101241.41;5039401;28;20039;-44
2022/05/25 05:35:06;;;;;;;13.70;7.70;;;;;;;12.27;88.90;101250.41;5073688;28;20028;-49
2022/05/25 05:37:43;;;;;;;14.65;8.00;;;;;;;12.29;89.24;101248.44;5073761;28;20398;-42
2022/05/25 05:40:10;;;;;;;16.30;7.65;;;;;;;12.52;88.09;101256.81;5056414;28;20063;-43
2022/05/25 05:42:39;;;;;;;13.88;7.45;;;;;;;12.43;88.29;101255.34;5073898;28;20370;-43
2022/05/25 05:45:14;;;;;;;14.02;7.72;;;;;;;12.74;87.68;101256.75;5073642;28;20020;-43
2022/05/25 05:48:04;;;;;;;15.18;7.15;;;;;;;18.61;64.83;101252.50;5039651;28;20038;-44
2022/05/25 05:50:35;;;;;;;13.50;6.28;;;;;;;21.22;55.35;101250.84;5055282;28;20020;-42
2022/05/25 05:53:00;;;;;;;10.35;5.60;;;;;;;19.14;57.58;101256.00;5073322;28;20025;-43
2022/05/25 05:55:26;;;;;;;16.30;6.60;;;;;;;17.94;64.59;101262.47;5055147;28;20039;-43
2022/05/25 05:57:51;;;;;;;13.75;5.93;;;;;;;17.98;61.99;101258.38;5073389;28;20027;-43
2022/05/25 06:00:17;;;;;;;14.80;6.38;;;;;;;15.43;71.90;101267.16;5073180;28;20048;-45
2022/05/25 06:02:43;;;;;;;15.05;6.68;;;;;;;17.22;65.80;101276.25;5073080;28;20035;-43
2022/05/25 06:05:10;;;;;;;14.40;6.65;;;;;;;15.99;72.62;101271.69;5072969;28;20028;-42
2022/05/25 06:07:36;;;;;;;10.45;6.35;;;;;;;20.97;54.22;101267.88;5072854;28;20135;-46
2022/05/25 06:10:02;;;;;;;11.32;6.28;;;;;;;23.31;47.81;101265.47;5072990;28;20024;-44
2022/05/25 06:12:28;;;;;;;8.98;5.93;;;;;;;22.74;48.66;101268.94;5072963;28;20024;-44
2022/05/25 06:14:53;;;;;;;15.63;6.20;;;;;;;23.44;46.98;101266.81;5074486;28;20142;-43
2022/05/25 06:20:03;;;;;;;14.23;6.53;;;;;;;21.44;53.76;101258.72;5077974;28;20082;-43
2022/05/25 06:22:31;;;;;;;14.68;7.05;;;;;;;22.26;50.15;101271.53;5077321;28;20103;-43
2022/05/25 06:24:57;;;;;;;13.98;6.40;;;;;;;23.67;46.75;101262.09;5077353;28;20455;-42
2022/05/25 06:27:22;;;;;;;12.00;6.00;;;;;;;23.70;45.83;101267.66;5077325;28;20162;-43
2022/05/25 06:29:48;;;;;;;14.18;6.18;;;;;;;24.98;42.43;101276.19;5076833;28;20386;-42
2022/05/25 06:32:17;;;;;;;16.33;6.38;;;;;;;24.48;43.13;101271.84;5077129;28;20021;-45
2022/05/25 06:34:47;;;;;;;12.00;6.30;;;;;;;23.29;45.75;101269.44;5076957;28;20107;-43
2022/05/25 06:37:18;;;;;;;12.07;6.30;;;;;;;23.59;45.32;101268.69;5076623;28;20035;-45
2022/05/25 06:39:44;;;;;;;13.32;6.30;;;;;;;24.61;44.23;101273.94;5076653;28;20491;-42
2022/05/25 06:42:10;;;;;;;12.27;6.25;;;;;;;23.75;45.78;101270.31;5076829;28;20455;-43
2022/05/25 06:44:36;;;;;;;12.75;6.65;;;;;;;25.88;42.84;101269.06;5058687;28;20031;-41
2022/05/25 06:47:03;;;;;;;11.90;6.22;;;;;;;25.09;42.53;101276.13;5077391;28;20027;-44
2022/05/25 06:49:29;;;;;;;18.58;5.93;;;;;;;25.47;42.20;101279.91;5059064;28;20043;-52
2022/05/25 06:51:54;;;;;;;16.67;6.53;;;;;;;23.30;45.49;101281.53;5058378;28;20107;-42
2022/05/25 06:54:20;;;;;;;13.95;6.20;;;;;;;20.24;53.74;101278.41;5076609;28;20059;-43
2022/05/25 06:56:45;;;;;;;11.23;6.00;;;;;;;18.52;59.49;101289.75;5058323;28;20029;-42
2022/05/25 06:59:11;;;;;;;13.60;6.97;;;;;;;17.70;62.94;101291.13;5076217;28;20522;-43
2022/05/25 07:01:39;;;;;;;14.23;6.38;;;;;;;17.31;66.13;101290.59;5076249;28;20027;-43
2022/05/25 07:04:05;;;;;;;13.32;7.07;;;;;;;17.08;67.15;101286.03;5076167;28;20035;-43
2022/05/25 07:06:31;;;;;;;18.55;7.90;;;;;;;16.43;68.43;101296.06;5076149;28;20024;-45
2022/05/25 07:08:56;;;;;;;17.35;7.68;;;;;;;15.67;72.97;101292.50;5057907;28;20025;-42
2022/05/25 07:11:23;;;;;;;15.02;8.00;;;;;;;16.17;72.02;101295.25;5076277;28;20035;-42
2022/05/25 07:13:50;;;;;;;14.05;7.40;;;;;;;17.61;65.86;101308.16;5076086;28;20021;-42
2022/05/25 07:16:18;;;;;;;17.20;7.80;;;;;;;18.32;62.71;101321.47;5076087;28;20020;-44
2022/05/25 07:18:44;;;;;;;17.83;7.20;;;;;;;18.86;60.09;101324.81;5076464;28;20092;-44
2022/05/25 07:21:17;;;;;;;16.80;8.07;;;;;;;18.06;63.17;101326.06;5058053;28;20378;-44
2022/05/25 07:23:44;;;;;;;20.20;9.05;;;;;;;17.74;63.87;101312.41;5075961;28;20032;-43
2022/05/25 07:26:10;;;;;;;14.75;8.35;;;;;;;18.16;63.60;101325.53;5075811;28;20036;-42
2022/05/25 07:28:36;;;;;;;13.93;7.97;;;;;;;17.88;63.49;101320.91;5057742;28;20107;-45
2022/05/25 07:31:07;;;;;;;15.15;8.25;;;;;;;17.40;64.86;101314.63;5075350;28;20058;-43
2022/05/25 07:33:34;;;;;;;13.25;8.05;;;;;;;17.95;62.85;101322.41;5075797;28;20039;-43
2022/05/25 07:35:59;;;;;;;17.15;9.15;;;;;;;17.27;64.65;101320.00;5075299;28;20485;-44
2022/05/25 07:38:27;;;;;;;22.25;8.80;;;;;;;16.79;66.84;101324.09;5075080;28;20169;-43
2022/05/25 07:40:53;;;;;;;16.48;8.55;;;;;;;16.84;68.38;101329.47;5075616;28;20490;-43
2022/05/25 07:43:21;;;;;;;15.95;9.52;;;;;;;16.64;67.93;101327.00;5075221;28;20044;-42
2022/05/25 07:45:47;;;;;;;17.58;9.57;;;;;;;15.93;70.48;101329.88;5076181;28;20032;-45
2022/05/25 07:48:13;;;;;;;16.15;9.55;;;;;;;15.84;70.24;101328.53;5076094;28;20032;-44
2022/05/25 07:50:40;;;;;;;14.95;9.63;;;;;;;15.61;71.99;101340.22;5058160;28;20028;-45
2022/05/25 07:53:55;;;;;;;17.55;9.73;;;;;;;16.14;71.64;101331.34;5057425;28;20070;-43
2022/05/25 07:55:53;;;;;;;16.50;9.45;;;;;;;16.38;69.59;101338.44;5075394;28;20475;-43
2022/05/25 07:58:19;;;;;;;15.95;9.68;;;;;;;16.68;69.57;101330.75;5057635;28;20032;-43
2022/05/25 08:00:45;;;;;;;16.80;10.20;;;;;;;17.13;66.66;101333.19;5057541;28;20035;-49
2022/05/25 08:05:58;;;;;;;17.33;10.20;;;;;;;17.34;65.41;101336.38;5075578;28;20049;-50
2022/05/25 08:08:25;;;;;;;14.93;9.30;;;;;;;17.18;65.34;101331.75;5075125;28;20048;-44
2022/05/25 08:10:55;;;;;;;17.00;9.88;;;;;;;16.51;67.57;101331.50;5075170;28;20063;-43
2022/05/25 08:13:22;;;;;;;17.60;9.93;;;;;;;15.66;69.36;101353.44;5075598;28;20033;-42
2022/05/25 08:15:48;;;;;;;19.63;10.65;;;;;;;15.95;68.77;101349.53;5057131;28;20028;-43
2022/05/25 08:18:15;;;;;;;19.02;10.13;;;;;;;16.71;67.64;101342.59;5075723;28;20094;-43
2022/05/25 08:20:42;;;;;;;14.68;9.23;;;;;;;17.13;65.76;101343.63;5057702;28;20386;-43
2022/05/25 08:23:10;;;;;;;16.88;10.18;;;;;;;16.94;65.66;101347.22;5075195;28;20085;-42
2022/05/25 08:25:35;;;;;;;21.52;10.15;;;;;;;17.74;63.25;101333.31;5075185;28;20371;-43
2022/05/25 08:28:02;;;;;;;21.15;9.60;;;;;;;17.42;63.96;101338.72;5075446;28;20035;-41
2022/05/25 08:30:28;;;;;;;19.85;10.25;;;;;;;17.07;65.50;101341.91;5056725;28;20029;-41
2022/05/25 08:32:53;;;;;;;18.65;10.32;;;;;;;16.77;67.19;101341.75;5075153;28;20020;-41
2022/05/25 08:35:19;;;;;;;15.75;9.63;;;;;;;17.42;64.70;101346.56;5056769;28;20467;-43
2022/05/25 08:37:44;;;;;;;21.00;10.02;;;;;;;17.70;63.96;101334.78;5073795;28;20028;-41
2022/05/25 08:40:13;;;;;;;15.27;9.60;;;;;;;18.01;62.62;101342.44;5074883;28;20024;-42
2022/05/25 08:43:02;;;;;;;18.75;9.65;;;;;;;18.01;63.28;101341.63;5075192;28;20035;-42
2022/05/25 08:45:34;;;;;;;17.10;9.85;;;;;;;17.98;63.29;101342.06;5064641;28;20028;-42
2022/05/25 08:48:01;;;;;;;16.58;9.15;;;;;;;18.50;62.76;101344.94;5057195;28;20471;-41
2022/05/25 08:50:30;;;;;;;19.52;9.30;;;;;;;19.11;60.54;101340.31;5074739;28;20032;-42
2022/05/25 08:52:58;;;;;;;17.38;9.27;;;;;;;18.25;61.49;101345.91;5074621;28;20427;-43
2022/05/25 08:55:48;;;;;;;17.20;8.93;;;;;;;17.54;63.60;101344.78;5074934;28;20032;-42
2022/05/25 08:58:14;;;;;;;14.75;8.55;;;;;;;18.37;61.16;101340.69;5074526;28;20369;-42
2022/05/25 09:00:43;;;;;;;17.05;9.30;;;;;;;17.94;61.85;101348.75;5074216;28;20016;-43
2022/05/25 09:03:39;;;;;;;15.55;8.80;;;;;;;19.21;59.44;101337.09;5074074;28;20360;-43
2022/05/25 09:06:17;;;;;;;12.77;7.97;;;;;;;18.83;59.48;101352.25;5074406;28;20447;-43
2022/05/25 09:08:45;;;;;;;15.45;7.57;;;;;;;19.21;58.90;101337.88;5074186;28;20056;-43
2022/05/25 09:11:15;;;;;;;11.95;6.68;;;;;;;19.09;58.20;101337.91;5074227;28;20050;-42
2022/05/25 09:13:47;;;;;;;9.18;5.55;;;;;;;19.30;56.56;101348.78;5073892;28;20020;-41
2022/05/25 09:16:17;;;;;;;12.57;5.63;;;;;;;19.56;54.28;101344.84;5074364;28;20043;-43
2022/05/25 09:18:48;;;;;;;9.32;5.60;;;;;;;18.79;56.11;101355.56;5055922;28;20119;-42
2022/05/25 09:21:20;;;;;;;14.65;5.57;;;;;;;18.74;57.45;101348.41;5073842;28;20028;-43
2022/05/25 09:23:45;;;;;;;10.50;4.70;;;;;;;18.51;57.29;101345.72;5073793;28;20024;-35
2022/05/25 09:26:13;;;;;;;12.90;5.28;;;;;;;18.58;55.35;101344.59;5073930;28;20024;-35
2022/05/25 09:28:42;;;;;;;7.75;4.70;;;;;;;18.79;57.16;101343.28;5073709;28;20099;-34
2022/05/25 09:31:11;;;;;;;7.57;4.18;;;;;;;19.31;54.94;101335.47;5055608;28;20037;-34
2022/05/25 09:33:46;;;;;;;8.10;3.95;;;;;;;19.41;54.85;101339.31;5073902;28;20375;-34
2022/05/25 09:36:22;;;;;;;6.38;3.42;;;;;;;19.71;52.38;101333.88;5074648;28;20035;-35
2022/05/25 09:39:06;;;;;;;10.18;3.95;;;;;;;19.53;53.22;101330.38;5073491;28;20141;-35
2022/05/25 09:41:33;;;;;;;10.13;3.30;;;;;;;19.91;51.45;101328.22;5073844;28;20074;-35
2022/05/25 09:44:02;;;;;;;12.18;3.20;;;;;;;18.90;53.53;101339.03;5074183;28;20399;-35
2022/05/25 09:46:45;;;;;;;9.82;2.90;;;;;;;18.68;54.14;101344.84;5073787;28;20032;-34
2022/05/25 09:49:15;;;;;;;;;;;;;;;18.89;54.13;101338.25;5073930;28;20039;-35
2022/05/25 09:51:44;;;;;;;11.93;2.47;;;;;;;19.78;50.88;101337.97;5073680;28;20283;-35
2022/05/25 09:54:21;;;;;;;7.28;1.92;;;;;;;19.41;50.64;101344.56;5073727;28;20074;-36
2022/05/25 09:57:05;;;;;;;6.03;1.83;;;;;;;20.39;47.48;101340.84;5073516;28;20028;-37
2022/05/25 10:00:00;;;;;;;7.35;1.67;;;;;;;20.50;45.95;101347.03;5073340;28;20025;-34
2022/05/25 10:02:41;;;;;;;9.32;1.70;;;;;;;20.82;45.52;101326.28;5073494;28;20021;-35
2022/05/25 10:05:34;;;;;;;8.73;2.00;;;;;;;20.85;44.56;101336.28;5073750;28;20386;-34
2022/05/25 10:08:20;;;;;;;7.68;1.75;;;;;;;20.27;46.37;101335.66;5072935;28;20463;-33
2022/05/25 10:10:52;;;;;;;6.93;1.60;;;;;;;20.49;45.31;101332.34;5073043;28;20025;-36
2022/05/25 10:13:25;;;;;;;10.00;1.70;;;;;;;20.08;48.50;101334.28;5073398;28;20531;-35
2022/05/25 10:15:52;;;;;;;5.05;1.50;;;;;;;19.49;46.98;101337.13;5073471;28;20652;-35
2022/05/25 10:18:43;;;;;;;4.15;1.30;;;;;;;18.46;47.27;101328.88;5056734;28;20024;-34
2022/05/25 10:21:23;;;;;;;5.57;1.58;;;;;;;18.21;49.71;101346.56;5073316;28;20027;-35
2022/05/25 10:23:49;;;;;;;4.55;1.35;;;;;;;17.80;51.64;101348.94;5073140;28;20031;-37
2022/05/25 10:26:19;;;;;;;4.10;1.30;;;;;;;17.86;53.55;101357.69;5073111;28;20020;-36
2022/05/25 10:28:44;;;;;;;4.15;1.08;;;;;;;17.40;51.48;101358.22;5073634;28;20078;-43
2022/05/25 10:37:06;;;;;;;12.98;1.30;;;;;;;19.08;49.50;101367.75;5017866;28;20087;-43
2022/05/25 10:39:35;;;;;;;7.93;1.40;;;;;;;20.12;44.98;101368.75;5073237;28;20034;-42
2022/05/25 10:42:25;;;;;;;5.20;1.05;;;;;;;20.08;42.27;101359.72;5072824;28;20063;-42
2022/05/25 10:44:59;;;;;;;7.40;1.50;;;;;;;18.81;44.80;101383.09;5073594;28;20042;-42
2022/05/25 10:47:49;;;;;;;5.63;1.50;;;;;;;18.24;46.67;101380.13;5073011;28;20024;-43
2022/05/25 10:50:35;;;;;;;6.80;1.20;;;;;;;17.98;47.74;101363.78;5073196;28;20035;-42
2022/05/25 10:53:18;;;;;;;4.75;1.35;;;;;;;18.37;46.41;101363.44;5073068;28;20060;-43
2022/05/25 10:56:02;;;;;;;3.28;1.00;;;;;;;19.32;45.54;101355.41;5072755;28;20040;-43
2022/05/25 10:59:04;;;;;;;6.82;1.35;;;;;;;19.95;44.68;101359.00;5073173;28;20021;-42
2022/05/25 11:01:32;;;;;;;7.63;1.15;;;;;;;19.38;44.13;101353.69;5075407;28;20036;-44
2022/05/25 11:04:39;;;;;;;4.43;0.90;;;;;;;19.58;43.52;101358.53;5076678;28;20048;-43
2022/05/25 11:07:25;;;;;;;3.60;1.05;;;;;;;20.14;42.63;101351.72;5076187;28;20079;-41
2022/05/25 11:10:14;;;;;;;4.45;1.00;;;;;;;20.42;43.05;101363.19;5076817;28;20050;-44
2022/05/25 11:13:01;;;;;;;3.80;1.10;;;;;;;20.84;42.25;101355.72;5058591;28;20031;-42
2022/05/25 11:15:40;;;;;;;5.95;1.30;;;;;;;20.59;42.99;101350.88;5058362;28;20490;-43
2022/05/25 11:18:51;;;;;;;7.78;1.33;;;;;;;21.07;42.44;101373.13;5076447;28;20033;-44
2022/05/25 11:21:51;;;;;;;2.90;0.70;;;;;;;20.90;41.26;101362.63;5056119;28;20533;-42
2022/05/25 11:24:31;;;;;;;5.32;0.90;;;;;;;21.32;43.88;101359.53;5076168;28;20024;-42
2022/05/25 11:27:13;;;;;;;2.58;0.80;;;;;;;20.98;41.23;101350.13;5058205;28;20066;-42
2022/05/25 11:30:03;;;;;;;3.40;0.95;;;;;;;21.03;41.97;101353.63;5076262;28;20060;-44
2022/05/25 11:32:57;;;;;;;3.80;0.85;;;;;;;21.27;39.87;101350.78;5075820;28;20116;-42
2022/05/25 11:35:44;;;;;;;11.00;0.82;;;;;;;21.51;40.47;101364.50;5076767;28;20036;-41
2022/05/25 11:38:28;;;;;;;7.72;1.08;;;;;;;21.19;41.82;101349.34;5076255;28;20107;-43
2022/05/25 11:41:35;;;;;;;5.88;1.10;;;;;;;21.41;40.50;101354.66;5057689;28;20107;-42
2022/05/25 11:44:30;;;;;;;3.75;0.80;;;;;;;21.82;39.51;101349.84;5035357;28;20067;-43
2022/05/25 11:47:07;;;;;;;3.33;0.98;;;;;;;21.63;40.22;101355.41;5076180;28;20056;-44
2022/05/25 11:49:48;;;;;;;5.30;0.77;;;;;;;21.91;40.40;101355.44;5075529;28;20104;-43
2022/05/25 11:52:45;;;;;;;4.13;1.00;;;;;;;22.49;39.92;101361.75;5075739;28;20030;-43
2022/05/25 11:55:27;;;;;;;3.42;0.73;;;;;;;22.08;39.68;101359.53;5075370;28;20029;-42
2022/05/25 11:58:15;;;;;;;2.28;0.60;;;;;;;21.18;41.52;101353.81;5075592;28;20024;-45